createdAt,value
2022-09-12T00:01:10.167Z,7.50
2022-09-12T00:02:11.826Z,8.47
2022-09-12T00:03:13.727Z,7.43
2022-09-12T00:04:15.314Z,8.10
2022-09-12T00:05:16.932Z,7.50
2022-09-12T00:06:23.170Z,8.03
2022-09-12T00:07:24.838Z,8.20
2022-09-12T00:08:26.483Z,7.00
2022-09-12T00:09:28.057Z,8.20
2022-09-12T00:10:29.605Z,7.10
2022-09-12T00:11:31.589Z,7.90
2022-09-12T00:12:33.262Z,8.07
2022-09-12T00:13:39.509Z,8.30
2022-09-12T00:14:42.921Z,7.83
2022-09-12T00:15:44.654Z,8.30
2022-09-12T00:16:46.282Z,8.40
2022-09-12T00:17:47.857Z,7.50
2022-09-12T00:18:49.754Z,8.50
2022-09-12T00:19:51.325Z,8.50
2022-09-12T00:20:52.782Z,8.33
2022-09-12T00:21:54.934Z,8.50
2022-09-12T00:22:56.432Z,7.80
2022-09-12T00:23:58.158Z,7.63
2022-09-12T00:25:00.288Z,7.63
2022-09-12T00:26:05.972Z,7.60
2022-09-12T00:27:07.800Z,8.63
2022-09-12T00:28:09.723Z,7.67
2022-09-12T00:29:16.615Z,7.47
2022-09-12T00:30:18.221Z,7.90
2022-09-12T00:31:24.061Z,8.10
2022-09-12T00:32:25.654Z,8.07
2022-09-12T00:33:27.168Z,8.03
2022-09-12T00:34:30.801Z,7.10
2022-09-12T00:35:32.422Z,8.03
2022-09-12T00:36:34.200Z,7.03
2022-09-12T00:37:35.909Z,7.73
2022-09-12T00:38:38.774Z,7.97
2022-09-12T00:39:40.619Z,8.83
2022-09-12T00:40:42.991Z,7.13
2022-09-12T00:41:44.867Z,7.63
2022-09-12T00:42:46.345Z,7.80
2022-09-12T00:43:53.979Z,7.47
2022-09-12T00:44:55.454Z,7.57
2022-09-12T00:45:59.589Z,7.37
2022-09-12T00:47:06.247Z,7.77
2022-09-12T00:48:18.918Z,7.60
2022-09-12T00:49:47.610Z,7.27
2022-09-12T00:50:50.139Z,6.50
2022-09-12T00:51:58.625Z,7.10
2022-09-12T00:53:04.285Z,7.20
2022-09-12T00:54:10.663Z,8.40
2022-09-12T00:55:16.830Z,7.80
2022-09-12T00:56:19.808Z,7.40
2022-09-12T00:57:26.476Z,7.67
2022-09-12T00:58:32.170Z,7.70
2022-09-12T00:59:55.186Z,8.23
2022-09-12T01:00:58.945Z,7.40
2022-09-12T01:02:01.130Z,7.00
2022-09-12T01:03:13.641Z,7.90
2022-09-12T01:04:17.475Z,6.70
2022-09-12T01:05:19.888Z,8.17
2022-09-12T01:06:33.209Z,7.17
2022-09-12T01:07:40.204Z,7.07
2022-09-12T01:08:44.436Z,7.43
2022-09-12T01:09:46.434Z,6.90
2022-09-12T01:10:48.669Z,7.07
2022-09-12T01:11:51.932Z,6.90
2022-09-12T01:12:53.590Z,7.63
2022-09-12T01:13:55.251Z,7.37
2022-09-12T01:14:56.872Z,7.10
2022-09-12T01:15:58.421Z,7.40
2022-09-12T01:17:00.361Z,7.17
2022-09-12T01:18:01.845Z,6.70
2022-09-12T01:19:46.237Z,7.23
2022-09-12T01:21:11.899Z,6.60
2022-09-12T01:22:35.544Z,7.30
2022-09-12T01:23:53.845Z,7.20
2022-09-12T01:25:37.936Z,7.70
2022-09-12T01:27:16.594Z,7.57
2022-09-12T01:28:24.141Z,7.30
2022-09-12T01:29:53.891Z,7.00
2022-09-12T01:31:19.223Z,8.40
2022-09-12T01:32:26.868Z,7.73
2022-09-12T01:33:39.755Z,7.40
2022-09-12T01:34:53.523Z,7.00
2022-09-12T01:36:07.372Z,7.23
2022-09-12T01:37:36.830Z,7.00
2022-09-12T01:38:41.319Z,6.87
2022-09-12T01:40:22.369Z,7.60
2022-09-12T01:41:33.518Z,6.60
2022-09-12T01:42:47.065Z,6.97
2022-09-12T01:44:15.467Z,7.50
2022-09-12T01:45:21.124Z,7.40
2022-09-12T01:46:47.499Z,6.70
2022-09-12T01:48:14.739Z,6.93
2022-09-12T01:49:46.364Z,7.20
2022-09-12T01:50:56.664Z,6.60
2022-09-12T01:52:25.832Z,6.30
2022-09-12T01:53:33.575Z,7.50
2022-09-12T01:54:49.306Z,6.97
2022-09-12T01:56:26.616Z,6.47
2022-09-12T01:57:36.512Z,7.10
2022-09-12T01:58:41.112Z,6.63
2022-09-12T01:59:51.021Z,7.53
2022-09-12T02:01:16.486Z,6.70
2022-09-12T02:02:18.106Z,6.80
2022-09-12T02:03:26.847Z,6.17
2022-09-12T02:04:41.338Z,6.77
2022-09-12T02:05:52.144Z,6.67
2022-09-12T02:06:59.879Z,7.27
2022-09-12T02:08:08.147Z,6.40
2022-09-12T02:09:21.729Z,6.60
2022-09-12T02:10:32.379Z,7.57
2022-09-12T02:11:38.597Z,6.63
2022-09-12T02:12:49.134Z,7.07
2022-09-12T02:13:57.965Z,6.47
2022-09-12T02:15:03.458Z,7.13
2022-09-12T02:16:11.518Z,6.27
2022-09-12T02:17:16.559Z,6.70
2022-09-12T02:18:21.222Z,6.70
2022-09-12T02:19:27.619Z,6.80
2022-09-12T02:20:49.613Z,6.50
2022-09-12T02:21:55.134Z,6.40
2022-09-12T02:22:58.289Z,7.10
2022-09-12T02:24:03.406Z,6.87
2022-09-12T02:25:08.064Z,7.53
2022-09-12T02:26:25.890Z,6.37
2022-09-12T02:27:34.003Z,6.53
2022-09-12T02:28:40.481Z,6.87
2022-09-12T02:29:44.851Z,7.60
2022-09-12T02:30:58.120Z,6.90
2022-09-12T02:32:11.716Z,7.00
2022-09-12T02:33:27.212Z,6.40
2022-09-12T02:34:43.896Z,7.07
2022-09-12T02:35:54.322Z,7.80
2022-09-12T02:37:02.950Z,6.50
2022-09-12T02:38:10.247Z,6.70
2022-09-12T02:39:12.189Z,6.73
2022-09-12T02:40:14.695Z,7.33
2022-09-12T02:41:20.099Z,7.47
2022-09-12T02:42:22.574Z,7.13
2022-09-12T02:43:24.284Z,6.90
2022-09-12T02:44:27.921Z,7.43
2022-09-12T02:45:34.183Z,7.30
2022-09-12T02:46:43.671Z,7.13
2022-09-12T02:47:58.676Z,6.90
2022-09-12T02:49:00.381Z,7.30
2022-09-12T02:50:02.306Z,7.20
2022-09-12T02:51:04.095Z,7.20
2022-09-12T02:52:05.811Z,7.33
2022-09-12T02:53:08.457Z,6.90
2022-09-12T02:54:11.708Z,7.80
2022-09-12T02:55:14.599Z,7.53
2022-09-12T02:56:25.481Z,7.00
2022-09-12T02:57:26.983Z,6.97
2022-09-12T02:58:31.981Z,6.50
2022-09-12T02:59:33.524Z,7.50
2022-09-12T03:00:43.000Z,6.93
2022-09-12T03:01:56.780Z,7.17
2022-09-12T03:03:07.561Z,7.60
2022-09-12T03:04:11.797Z,6.50
2022-09-12T03:05:19.462Z,6.67
2022-09-12T03:06:41.769Z,6.40
2022-09-12T03:08:18.679Z,6.97
2022-09-12T03:09:26.522Z,6.90
2022-09-12T03:10:32.721Z,6.60
2022-09-12T03:11:41.300Z,6.63
2022-09-12T03:12:51.642Z,7.93
2022-09-12T03:14:17.719Z,6.73
2022-09-12T03:15:41.438Z,6.93
2022-09-12T03:17:15.036Z,7.00
2022-09-12T03:18:53.876Z,7.07
2022-09-12T03:20:21.645Z,7.00
2022-09-12T03:21:54.842Z,7.57
2022-09-12T03:23:03.389Z,7.37
2022-09-12T03:24:32.939Z,7.43
2022-09-12T03:25:40.766Z,7.50
2022-09-12T03:26:59.603Z,7.63
2022-09-12T03:28:07.514Z,6.57
2022-09-12T03:29:11.770Z,6.87
2022-09-12T03:30:13.452Z,7.10
2022-09-12T03:31:17.971Z,6.43
2022-09-12T03:32:19.471Z,7.37
2022-09-12T03:33:23.460Z,6.37
2022-09-12T03:34:27.550Z,6.80
2022-09-12T03:35:29.981Z,6.70
2022-09-12T03:36:31.685Z,6.30
2022-09-12T03:37:33.216Z,6.33
2022-09-12T03:38:34.761Z,6.63
2022-09-12T03:39:36.398Z,6.60
2022-09-12T03:40:38.885Z,6.77
2022-09-12T03:41:40.519Z,6.83
2022-09-12T03:42:42.701Z,7.40
2022-09-12T03:43:44.656Z,6.40
2022-09-12T03:44:46.183Z,6.17
2022-09-12T03:45:50.993Z,6.60
2022-09-12T03:46:52.567Z,6.73
2022-09-12T03:47:54.080Z,6.70
2022-09-12T03:48:55.626Z,5.97
2022-09-12T03:49:57.096Z,6.00
2022-09-12T03:51:07.435Z,5.50
2022-09-12T03:52:08.888Z,5.80
2022-09-12T03:53:13.005Z,6.00
2022-09-12T03:54:18.052Z,6.40
2022-09-12T03:55:19.587Z,6.53
2022-09-12T03:56:21.294Z,5.90
2022-09-12T03:57:22.844Z,6.27
2022-09-12T03:58:25.536Z,6.10
2022-09-12T03:59:27.023Z,6.57
2022-09-12T04:00:28.573Z,7.50
2022-09-12T04:01:30.090Z,6.63
2022-09-12T04:02:31.653Z,6.53
2022-09-12T04:03:33.243Z,7.07
2022-09-12T04:04:34.799Z,6.77
2022-09-12T04:05:36.708Z,7.00
2022-09-12T04:06:38.317Z,6.80
2022-09-12T04:07:39.958Z,6.03
2022-09-12T04:08:43.590Z,6.50
2022-09-12T04:09:45.346Z,6.80
2022-09-12T04:10:46.994Z,6.73
2022-09-12T04:11:48.567Z,7.33
2022-09-12T04:12:50.058Z,6.20
2022-09-12T04:13:51.938Z,6.67
2022-09-12T04:14:53.611Z,6.33
2022-09-12T04:16:01.542Z,6.13
2022-09-12T04:17:03.223Z,7.30
2022-09-12T04:18:06.115Z,6.60
2022-09-12T04:19:07.782Z,6.17
2022-09-12T04:20:09.546Z,6.57
2022-09-12T04:21:14.142Z,5.80
2022-09-12T04:22:15.663Z,6.00
2022-09-12T04:23:17.177Z,5.90
2022-09-12T04:24:18.914Z,6.13
2022-09-12T04:25:20.472Z,6.43
2022-09-12T04:26:22.378Z,5.90
2022-09-12T04:27:23.997Z,5.67
2022-09-12T04:28:26.404Z,6.53
2022-09-12T04:29:29.409Z,6.10
2022-09-12T04:30:31.117Z,6.00
2022-09-12T04:31:32.644Z,6.03
2022-09-12T04:32:34.471Z,6.17
2022-09-12T04:33:36.909Z,5.80
2022-09-12T04:34:39.147Z,5.13
2022-09-12T04:35:41.536Z,6.87
2022-09-12T04:36:43.119Z,6.23
2022-09-12T04:37:44.684Z,5.83
2022-09-12T04:38:47.650Z,6.10
2022-09-12T04:39:49.739Z,6.60
2022-09-12T04:40:51.335Z,6.40
2022-09-12T04:41:52.877Z,6.00
2022-09-12T04:42:56.022Z,6.10
2022-09-12T04:44:02.311Z,5.60
2022-09-12T04:45:04.123Z,6.20
2022-09-12T04:46:10.586Z,6.13
2022-09-12T04:47:12.128Z,6.00
2022-09-12T04:48:13.716Z,5.70
2022-09-12T04:49:19.362Z,6.13
2022-09-12T04:50:20.917Z,6.40
2022-09-12T04:51:28.266Z,6.67
2022-09-12T04:52:29.791Z,5.90
2022-09-12T04:53:31.293Z,5.40
2022-09-12T04:54:33.574Z,5.83
2022-09-12T04:55:35.557Z,6.20
2022-09-12T04:56:39.375Z,5.20
2022-09-12T04:57:40.844Z,5.80
2022-09-12T04:58:42.579Z,5.50
2022-09-12T04:59:44.236Z,5.13
2022-09-12T05:00:45.758Z,5.67
2022-09-12T05:01:48.492Z,5.63
2022-09-12T05:02:50.187Z,5.37
2022-09-12T05:03:51.714Z,4.97
2022-09-12T05:04:54.231Z,5.90
2022-09-12T05:05:56.584Z,5.97
2022-09-12T05:06:58.691Z,4.70
2022-09-12T05:08:00.187Z,5.33
2022-09-12T05:09:03.034Z,5.20
2022-09-12T05:10:04.866Z,5.10
2022-09-12T05:11:10.128Z,5.43
2022-09-12T05:12:11.846Z,5.30
2022-09-12T05:13:13.367Z,5.57
2022-09-12T05:14:14.911Z,5.00
2022-09-12T05:15:16.411Z,5.73
2022-09-12T05:16:18.795Z,5.60
2022-09-12T05:17:20.355Z,4.77
2022-09-12T05:18:21.856Z,4.77
2022-09-12T05:19:23.523Z,5.33
2022-09-12T05:20:25.203Z,5.53
2022-09-12T05:21:27.984Z,5.50
2022-09-12T05:22:29.698Z,5.37
2022-09-12T05:23:32.097Z,5.37
2022-09-12T05:24:33.866Z,6.10
2022-09-12T05:25:35.391Z,4.70
2022-09-12T05:26:36.941Z,5.33
2022-09-12T05:27:38.688Z,5.20
2022-09-12T05:28:40.957Z,5.40
2022-09-12T05:29:43.090Z,5.67
2022-09-12T05:30:44.801Z,5.23
2022-09-12T05:31:50.022Z,5.30
2022-09-12T05:32:51.675Z,5.30
2022-09-12T05:33:55.182Z,5.20
2022-09-12T05:34:56.654Z,5.13
2022-09-12T05:35:58.452Z,5.40
2022-09-12T05:36:59.994Z,5.20
2022-09-12T05:38:01.547Z,5.40
2022-09-12T05:39:04.470Z,5.03
2022-09-12T05:40:08.504Z,4.90
2022-09-12T05:41:16.956Z,4.77
2022-09-12T05:42:19.838Z,4.50
2022-09-12T05:43:21.566Z,4.67
2022-09-12T05:44:23.084Z,4.43
2022-09-12T05:45:24.923Z,4.80
2022-09-12T05:46:28.609Z,4.70
2022-09-12T05:47:30.104Z,4.60
2022-09-12T05:48:34.260Z,4.57
2022-09-12T05:49:36.245Z,4.80
2022-09-12T05:50:37.783Z,4.60
2022-09-12T05:51:42.279Z,4.83
2022-09-12T05:52:43.850Z,5.80
2022-09-12T05:53:47.559Z,4.97
2022-09-12T05:54:49.105Z,4.60
2022-09-12T05:55:50.618Z,4.50
2022-09-12T05:56:52.143Z,4.27
2022-09-12T05:57:54.066Z,4.67
2022-09-12T05:58:58.127Z,3.80
2022-09-12T05:59:59.678Z,4.23
2022-09-12T06:01:07.360Z,4.40
2022-09-12T06:02:11.108Z,4.37
2022-09-12T06:03:12.765Z,4.37
2022-09-12T06:04:14.583Z,4.17
2022-09-12T06:05:16.183Z,4.10
2022-09-12T06:06:19.637Z,3.90
2022-09-12T06:07:21.143Z,4.00
2022-09-12T06:08:22.656Z,4.00
2022-09-12T06:09:25.685Z,3.70
2022-09-12T06:10:27.285Z,3.80
2022-09-12T06:11:31.059Z,3.90
2022-09-12T06:12:32.622Z,3.90
2022-09-12T06:13:36.892Z,3.40
2022-09-12T06:14:38.792Z,3.30
2022-09-12T06:15:40.292Z,3.33
2022-09-12T06:16:42.254Z,4.20
2022-09-12T06:17:45.642Z,3.50
2022-09-12T06:18:55.078Z,3.10
2022-09-12T06:19:56.945Z,3.53
2022-09-12T06:21:03.057Z,3.50
2022-09-12T06:22:05.034Z,3.00
2022-09-12T06:23:06.678Z,3.27
2022-09-12T06:24:11.030Z,2.87
2022-09-12T06:25:12.702Z,3.20
2022-09-12T06:26:17.389Z,3.13
2022-09-12T06:27:18.930Z,2.80
2022-09-12T06:28:20.765Z,2.80
2022-09-12T06:29:22.394Z,2.70
2022-09-12T06:30:25.550Z,2.40
2022-09-12T06:31:30.093Z,2.93
2022-09-12T06:32:31.710Z,3.20
2022-09-12T06:33:38.141Z,2.77
2022-09-12T06:34:39.779Z,2.67
2022-09-12T06:35:41.395Z,2.67
2022-09-12T06:36:45.647Z,3.07
2022-09-12T06:37:47.175Z,2.73
2022-09-12T06:38:53.557Z,2.20
2022-09-12T06:39:56.059Z,2.30
2022-09-12T06:40:58.572Z,2.37
2022-09-12T06:42:00.104Z,2.40
2022-09-12T06:43:01.646Z,2.43
2022-09-12T06:44:03.916Z,2.40
2022-09-12T06:45:05.844Z,2.27
2022-09-12T06:46:09.225Z,2.10
2022-09-12T06:47:12.055Z,2.30
2022-09-12T06:48:13.572Z,3.20
2022-09-12T06:49:15.613Z,2.33
2022-09-12T06:50:17.187Z,2.43
2022-09-12T06:51:20.505Z,2.10
2022-09-12T06:52:22.047Z,2.00
2022-09-12T06:53:23.605Z,2.70
2022-09-12T06:54:26.447Z,2.23
2022-09-12T06:55:28.047Z,2.40
2022-09-12T06:56:29.797Z,2.20
2022-09-12T06:57:32.603Z,2.50
2022-09-12T06:58:34.978Z,2.47
2022-09-12T06:59:36.574Z,2.10
2022-09-12T07:00:38.561Z,2.40
2022-09-12T07:01:41.989Z,2.00
2022-09-12T07:02:43.843Z,2.30
2022-09-12T07:03:54.232Z,1.80
2022-09-12T07:04:55.924Z,2.23
2022-09-12T07:05:57.771Z,2.00
2022-09-12T07:06:59.329Z,2.40
2022-09-12T07:08:00.873Z,3.33
2022-09-12T07:09:05.653Z,4.40
2022-09-12T07:10:07.628Z,3.00
2022-09-12T07:11:18.527Z,2.63
2022-09-12T07:12:20.041Z,2.30
2022-09-12T07:13:21.508Z,2.47
2022-09-12T07:14:23.272Z,2.27
2022-09-12T07:15:24.879Z,2.00
2022-09-12T07:16:26.567Z,1.67
2022-09-12T07:17:28.151Z,2.17
2022-09-12T07:18:29.707Z,1.93
2022-09-12T07:19:31.246Z,1.80
2022-09-12T07:20:35.758Z,1.53
2022-09-12T07:21:40.265Z,1.90
2022-09-12T07:22:42.244Z,2.00
2022-09-12T07:23:44.850Z,1.90
2022-09-12T07:24:46.568Z,1.80
2022-09-12T07:25:58.461Z,1.77
2022-09-12T07:26:59.946Z,2.10
2022-09-12T07:28:02.382Z,2.80
2022-09-12T07:29:32.276Z,1.90
2022-09-12T07:30:26.661Z,2.07
2022-09-12T07:31:28.578Z,1.93
2022-09-12T07:32:30.097Z,1.93
2022-09-12T07:33:31.774Z,1.60
2022-09-12T07:34:34.205Z,1.80
2022-09-12T07:35:35.930Z,1.67
2022-09-12T07:36:37.702Z,1.67
2022-09-12T07:37:39.296Z,1.70
2022-09-12T07:38:41.694Z,1.97
2022-09-12T07:39:43.630Z,1.80
2022-09-12T07:40:45.247Z,1.80
2022-09-12T07:41:46.995Z,1.90
2022-09-12T07:42:48.565Z,1.90
2022-09-12T07:43:55.844Z,2.10
2022-09-12T07:44:57.351Z,1.60
2022-09-12T07:45:58.928Z,1.93
2022-09-12T07:47:00.891Z,1.70
2022-09-12T07:48:02.584Z,1.60
2022-09-12T07:49:04.120Z,1.47
2022-09-12T07:50:06.074Z,2.10
2022-09-12T07:51:09.915Z,1.40
2022-09-12T07:52:11.502Z,1.67
2022-09-12T07:53:13.056Z,1.63
2022-09-12T07:54:14.743Z,1.53
2022-09-12T07:55:16.821Z,1.27
2022-09-12T07:56:27.333Z,1.70
2022-09-12T07:57:31.143Z,1.77
2022-09-12T07:58:34.957Z,1.40
2022-09-12T07:59:52.496Z,1.70
2022-09-12T08:00:54.987Z,1.40
2022-09-12T08:01:56.476Z,1.80
2022-09-12T08:02:58.052Z,1.77
2022-09-12T08:04:00.420Z,1.90
2022-09-12T08:05:02.497Z,2.33
2022-09-12T08:06:04.079Z,2.30
2022-09-12T08:07:06.564Z,2.03
2022-09-12T08:08:08.540Z,2.30
2022-09-12T08:09:12.138Z,2.40
2022-09-12T08:10:13.929Z,2.40
2022-09-12T08:11:18.468Z,2.70
2022-09-12T08:12:20.428Z,3.23
2022-09-12T08:13:21.956Z,3.30
2022-09-12T08:14:23.678Z,3.37
2022-09-12T08:15:25.419Z,2.87
2022-09-12T08:16:30.224Z,3.30
2022-09-12T08:17:31.742Z,3.60
2022-09-12T08:18:36.322Z,3.63
2022-09-12T08:19:38.862Z,3.10
2022-09-12T08:20:40.407Z,3.50
2022-09-12T08:21:41.911Z,3.10
2022-09-12T08:22:44.250Z,3.73
2022-09-12T08:23:46.808Z,3.60
2022-09-12T08:24:49.179Z,4.30
2022-09-12T08:25:52.115Z,3.40
2022-09-12T08:26:53.647Z,2.97
2022-09-12T08:27:55.616Z,3.13
2022-09-12T08:28:57.263Z,3.40
2022-09-12T08:29:59.116Z,2.70
2022-09-12T08:31:02.289Z,3.27
2022-09-12T08:32:04.092Z,3.40
2022-09-12T08:33:06.915Z,3.13
2022-09-12T08:34:09.427Z,3.53
2022-09-12T08:35:10.960Z,3.20
2022-09-12T08:36:18.192Z,2.97
2022-09-12T08:37:19.911Z,3.30
2022-09-12T08:38:21.489Z,3.00
2022-09-12T08:39:24.635Z,2.77
2022-09-12T08:40:26.255Z,3.43
2022-09-12T08:41:31.861Z,3.60
2022-09-12T08:42:51.611Z,3.03
2022-09-12T08:44:11.623Z,3.57
2022-09-12T08:45:21.776Z,3.30
2022-09-12T08:46:31.694Z,3.97
2022-09-12T08:47:40.142Z,3.40
2022-09-12T08:48:50.133Z,3.60
2022-09-12T08:50:11.972Z,3.50
2022-09-12T08:51:16.772Z,4.00
2022-09-12T08:52:24.209Z,3.60
2022-09-12T08:53:29.096Z,3.23
2022-09-12T08:54:32.365Z,3.80
2022-09-12T08:55:35.482Z,3.60
2022-09-12T08:56:38.962Z,3.50
2022-09-12T08:57:40.639Z,3.20
2022-09-12T08:58:45.493Z,3.40
2022-09-12T08:59:48.275Z,3.63
2022-09-12T09:01:08.652Z,4.20
2022-09-12T09:02:45.856Z,3.00
2022-09-12T09:04:09.347Z,3.13
2022-09-12T09:05:14.291Z,4.10
2022-09-12T09:06:36.237Z,3.20
2022-09-12T09:08:01.816Z,3.60
2022-09-12T09:09:24.279Z,2.93
2022-09-12T09:10:46.279Z,3.20
2022-09-12T09:12:09.380Z,3.63
2022-09-12T09:14:09.562Z,3.17
2022-09-12T09:16:01.778Z,3.03
2022-09-12T09:17:11.374Z,3.07
2022-09-12T09:18:23.281Z,3.97
2022-09-12T09:19:37.568Z,4.20
2022-09-12T09:20:49.492Z,3.73
2022-09-12T09:21:57.105Z,3.90
2022-09-12T09:23:02.391Z,3.70
2022-09-12T09:24:11.793Z,3.40
2022-09-12T09:25:25.151Z,3.87
2022-09-12T09:26:41.965Z,3.37
2022-09-12T09:27:51.981Z,3.63
2022-09-12T09:29:02.694Z,3.43
2022-09-12T09:30:05.486Z,2.93
2022-09-12T09:31:15.084Z,3.33
2022-09-12T09:32:25.639Z,3.20
2022-09-12T09:33:33.702Z,3.13
2022-09-12T09:34:35.492Z,3.17
2022-09-12T09:35:59.277Z,3.77
2022-09-12T09:37:31.648Z,3.27
2022-09-12T09:38:54.175Z,2.73
2022-09-12T09:40:08.269Z,2.93
2022-09-12T09:41:28.196Z,2.60
2022-09-12T09:42:38.851Z,3.03
2022-09-12T09:43:40.669Z,2.93
2022-09-12T09:44:43.770Z,2.50
2022-09-12T09:45:47.837Z,3.30
2022-09-12T09:46:56.037Z,2.60
2022-09-12T09:48:03.611Z,3.30
2022-09-12T09:49:07.134Z,2.73
2022-09-12T09:50:16.554Z,3.30
2022-09-12T09:51:25.132Z,2.97
2022-09-12T09:52:30.919Z,3.20
2022-09-12T09:53:46.210Z,3.60
2022-09-12T09:54:54.267Z,3.93
2022-09-12T09:55:56.839Z,3.10
2022-09-12T09:56:58.410Z,3.13
2022-09-12T09:58:00.382Z,3.20
2022-09-12T09:59:32.215Z,3.27
2022-09-12T10:00:38.527Z,2.53
2022-09-12T10:02:03.974Z,3.23
2022-09-12T10:03:14.913Z,3.17
2022-09-12T10:04:29.418Z,2.83
2022-09-12T10:05:34.783Z,2.27
2022-09-12T10:06:38.118Z,3.70
2022-09-12T10:07:50.169Z,2.70
2022-09-12T10:08:52.089Z,3.07
2022-09-12T10:10:17.241Z,2.30
2022-09-12T10:11:22.399Z,3.30
2022-09-12T10:12:28.482Z,3.10
2022-09-12T10:13:35.236Z,3.30
2022-09-12T10:14:40.267Z,3.00
2022-09-12T10:15:57.601Z,3.30
2022-09-12T10:16:59.512Z,2.60
2022-09-12T10:18:02.998Z,3.30
2022-09-12T10:19:04.528Z,2.70
2022-09-12T10:20:30.366Z,3.30
2022-09-12T10:22:15.897Z,3.10
2022-09-12T10:23:37.355Z,2.70
2022-09-12T10:24:47.328Z,3.17
2022-09-12T10:25:53.986Z,3.15
2022-09-12T10:27:13.291Z,2.77
2022-09-12T10:28:37.408Z,2.90
2022-09-12T10:30:04.169Z,2.80
2022-09-12T10:31:08.400Z,3.07
2022-09-12T10:32:12.574Z,2.60
2022-09-12T10:33:15.106Z,2.40
2022-09-12T10:34:38.002Z,2.80
2022-09-12T10:35:49.087Z,2.80
2022-09-12T10:36:54.584Z,3.03
2022-09-12T10:38:06.455Z,3.20
2022-09-12T10:39:18.789Z,3.10
2022-09-12T10:40:29.531Z,2.70
2022-09-12T10:41:39.676Z,2.77
2022-09-12T10:42:54.467Z,3.07
2022-09-12T10:44:07.606Z,3.17
2022-09-12T10:45:38.763Z,2.90
2022-09-12T10:46:40.570Z,2.80
2022-09-12T10:47:42.153Z,2.67
2022-09-12T10:48:45.530Z,2.40
2022-09-12T10:49:47.054Z,2.40
2022-09-12T10:50:48.555Z,2.83
2022-09-12T10:51:51.976Z,2.70
2022-09-12T10:52:54.881Z,2.77
2022-09-12T10:54:02.674Z,2.60
2022-09-12T10:55:12.061Z,2.45
2022-09-12T10:56:19.329Z,2.67
2022-09-12T10:57:33.249Z,3.20
2022-09-12T10:58:50.142Z,3.87
2022-09-12T11:00:04.961Z,2.80
2022-09-12T11:01:18.908Z,2.65
2022-09-12T11:02:28.671Z,2.75
2022-09-12T11:03:56.996Z,2.67
2022-09-12T11:05:22.588Z,2.17
2022-09-12T11:06:33.410Z,2.80
2022-09-12T11:07:42.659Z,2.92
2022-09-12T11:08:57.940Z,2.63
2022-09-12T11:10:18.305Z,2.78
2022-09-12T11:11:57.159Z,2.60
2022-09-12T11:13:06.766Z,2.72
2022-09-12T11:14:44.245Z,3.00
2022-09-12T11:15:54.902Z,2.65
2022-09-12T11:17:24.814Z,2.63
2022-09-12T11:18:43.312Z,2.22
2022-09-12T11:20:10.558Z,2.10
2022-09-12T11:21:27.310Z,2.28
2022-09-12T11:22:47.441Z,2.47
2022-09-12T11:24:22.748Z,1.80
2022-09-12T11:25:43.198Z,2.63
2022-09-12T11:26:50.466Z,2.35
2022-09-12T11:28:02.984Z,11.05
2022-09-12T11:29:19.577Z,6.40
2022-09-12T11:30:21.057Z,2.63
2022-09-12T11:31:31.937Z,1.90
2022-09-12T11:32:33.691Z,2.30
2022-09-12T11:33:45.406Z,2.45
2022-09-12T11:35:02.759Z,2.58
2022-09-12T11:36:12.612Z,2.78
2022-09-12T11:37:26.024Z,2.33
2022-09-12T11:38:44.533Z,3.08
2022-09-12T11:39:52.246Z,3.17
2022-09-12T11:41:07.301Z,2.50
2022-09-12T11:42:34.783Z,2.30
2022-09-12T11:43:55.474Z,2.63
2022-09-12T11:45:08.062Z,2.67
2022-09-12T11:46:51.765Z,2.78
2022-09-12T11:47:59.826Z,2.55
2022-09-12T11:49:04.846Z,2.95
2022-09-12T11:50:21.643Z,2.20
2022-09-12T11:51:38.356Z,2.10
2022-09-12T11:52:40.620Z,2.00
2022-09-12T11:53:44.539Z,2.40
2022-09-12T11:54:53.711Z,2.53
2022-09-12T11:56:04.142Z,2.17
2022-09-12T11:57:11.928Z,2.28
2022-09-12T11:58:14.790Z,2.25
2022-09-12T11:59:37.295Z,2.17
2022-09-12T12:00:46.710Z,2.17
2022-09-12T12:01:53.643Z,2.58
2022-09-12T12:03:08.456Z,2.40
2022-09-12T12:04:18.057Z,2.35
2022-09-12T12:05:24.396Z,1.83
2022-09-12T12:06:46.827Z,2.40
2022-09-12T12:07:55.733Z,2.00
2022-09-12T12:08:58.241Z,2.08
2022-09-12T12:09:59.746Z,2.10
2022-09-12T12:11:03.952Z,2.10
2022-09-12T12:12:14.271Z,2.30
2022-09-12T12:13:30.705Z,2.10
2022-09-12T12:14:47.808Z,2.53
2022-09-12T12:15:55.217Z,1.90
2022-09-12T12:16:57.234Z,2.05
2022-09-12T12:18:06.574Z,2.05
2022-09-12T12:19:14.038Z,2.10
2022-09-12T12:20:17.940Z,2.13
2022-09-12T12:21:29.283Z,2.08
2022-09-12T12:22:31.359Z,2.30
2022-09-12T12:23:35.347Z,2.60
2022-09-12T12:25:04.999Z,2.35
2022-09-12T12:26:41.529Z,2.20
2022-09-12T12:27:59.118Z,2.60
2022-09-12T12:29:01.161Z,2.13
2022-09-12T12:30:02.767Z,2.03
2022-09-12T12:31:05.783Z,2.40
2022-09-12T12:32:07.925Z,1.83
2022-09-12T12:33:13.045Z,2.25
2022-09-12T12:34:27.926Z,2.38
2022-09-12T12:35:35.525Z,2.13
2022-09-12T12:36:40.298Z,2.05
2022-09-12T12:37:41.799Z,2.55
2022-09-12T12:38:43.342Z,2.08
2022-09-12T12:39:48.063Z,2.00
2022-09-12T12:40:50.435Z,1.95
2022-09-12T12:41:51.989Z,2.13
2022-09-12T12:42:56.298Z,2.30
2022-09-12T12:44:36.362Z,2.25
2022-09-12T12:45:37.934Z,2.05
2022-09-12T12:46:39.729Z,2.25
2022-09-12T12:47:44.760Z,2.20
2022-09-12T12:48:52.680Z,2.40
2022-09-12T12:50:01.612Z,2.33
2022-09-12T12:51:38.023Z,2.20
2022-09-12T12:53:03.197Z,2.40
2022-09-12T12:54:25.952Z,3.08
2022-09-12T12:55:42.524Z,2.15
2022-09-12T12:56:44.335Z,2.25
2022-09-12T12:57:49.257Z,2.28
2022-09-12T12:58:58.627Z,2.50
2022-09-12T13:00:02.121Z,1.90
2022-09-12T13:01:09.711Z,2.15
2022-09-12T13:02:49.282Z,1.90
2022-09-12T13:03:58.568Z,1.90
2022-09-12T13:05:02.853Z,2.00
2022-09-12T13:06:08.854Z,1.70
2022-09-12T13:07:26.235Z,2.10
2022-09-12T13:08:33.508Z,1.80
2022-09-12T13:09:35.007Z,1.73
2022-09-12T13:10:37.758Z,1.70
2022-09-12T13:11:41.126Z,2.10
2022-09-12T13:12:47.622Z,2.20
2022-09-12T13:14:13.593Z,2.60
2022-09-12T13:15:36.836Z,2.60
2022-09-12T13:16:52.109Z,1.80
2022-09-12T13:17:58.024Z,2.30
2022-09-12T13:19:14.942Z,2.08
2022-09-12T13:20:28.354Z,1.63
2022-09-12T13:21:30.646Z,1.77
2022-09-12T13:22:41.824Z,1.90
2022-09-12T13:23:44.479Z,3.05
2022-09-12T13:24:54.467Z,1.83
2022-09-12T13:25:58.448Z,1.83
2022-09-12T13:27:00.183Z,1.77
2022-09-12T13:28:12.281Z,2.15
2022-09-12T13:29:19.274Z,1.92
2022-09-12T13:30:21.082Z,1.90
2022-09-12T13:31:25.680Z,2.05
2022-09-12T13:32:27.232Z,1.80
2022-09-12T13:33:34.816Z,1.75
2022-09-12T13:34:49.616Z,1.90
2022-09-12T13:35:53.961Z,2.20
2022-09-12T13:37:16.582Z,1.77
2022-09-12T13:38:46.269Z,1.60
2022-09-12T13:39:50.800Z,2.25
2022-09-12T13:41:15.611Z,2.10
2022-09-12T13:42:26.838Z,2.05
2022-09-12T13:43:47.056Z,1.90
2022-09-12T13:45:03.274Z,1.80
2022-09-12T13:46:07.111Z,1.65
2022-09-12T13:47:15.329Z,2.10
2022-09-12T13:48:21.321Z,2.10
2022-09-12T13:49:31.719Z,1.80
2022-09-12T13:50:41.288Z,1.98
2022-09-12T13:51:43.289Z,2.13
2022-09-12T13:52:49.949Z,1.80
2022-09-12T13:53:56.184Z,1.80
2022-09-12T13:55:00.623Z,1.70
2022-09-12T13:56:03.752Z,2.05
2022-09-12T13:57:06.040Z,2.10
2022-09-12T13:58:23.928Z,1.80
2022-09-12T13:59:25.938Z,1.73
2022-09-12T14:00:28.269Z,1.52
2022-09-12T14:01:44.795Z,1.58
2022-09-12T14:02:48.146Z,2.08
2022-09-12T14:04:14.178Z,2.30
2022-09-12T14:05:24.168Z,2.40
2022-09-12T14:06:27.705Z,2.53
2022-09-12T14:07:29.365Z,1.83
2022-09-12T14:08:31.613Z,1.80
2022-09-12T14:09:38.833Z,1.90
2022-09-12T14:10:43.755Z,1.80
2022-09-12T14:11:45.395Z,2.10
2022-09-12T14:12:50.692Z,1.80
2022-09-12T14:13:53.590Z,2.00
2022-09-12T14:14:55.198Z,2.17
2022-09-12T14:15:58.212Z,1.70
2022-09-12T14:17:00.534Z,1.60
2022-09-12T14:18:04.498Z,1.80
2022-09-12T14:19:06.275Z,1.85
2022-09-12T14:20:14.138Z,1.63
2022-09-12T14:21:36.484Z,2.00
2022-09-12T14:22:38.850Z,2.17
2022-09-12T14:23:45.361Z,2.55
2022-09-12T14:24:51.509Z,2.35
2022-09-12T14:25:54.225Z,2.15
2022-09-12T14:26:56.902Z,2.05
2022-09-12T14:27:58.502Z,2.08
2022-09-12T14:29:01.887Z,2.17
2022-09-12T14:30:19.068Z,2.60
2022-09-12T14:31:34.139Z,2.07
2022-09-12T14:32:36.114Z,2.30
2022-09-12T14:33:51.547Z,2.15
2022-09-12T14:35:11.756Z,2.10
2022-09-12T14:36:21.987Z,2.20
2022-09-12T14:37:24.975Z,2.42
2022-09-12T14:38:36.104Z,2.42
2022-09-12T14:39:41.674Z,2.33
2022-09-12T14:40:48.678Z,2.75
2022-09-12T14:41:52.026Z,2.05
2022-09-12T14:42:56.891Z,2.35
2022-09-12T14:44:05.034Z,2.30
2022-09-12T14:45:17.079Z,2.85
2022-09-12T14:46:24.130Z,2.30
2022-09-12T14:47:28.128Z,2.38
2022-09-12T14:48:35.647Z,2.45
2022-09-12T14:49:38.212Z,2.00
2022-09-12T14:50:39.856Z,1.80
2022-09-12T14:51:51.449Z,2.33
2022-09-12T14:53:31.543Z,2.40
2022-09-12T14:54:33.802Z,1.67
2022-09-12T14:55:44.401Z,2.20
2022-09-12T14:56:58.152Z,1.80
2022-09-12T14:58:15.496Z,2.40
2022-09-12T14:59:40.700Z,2.30
2022-09-12T15:01:05.565Z,2.08
2022-09-12T15:02:22.288Z,2.20